KCNM

Cavern City Air Trml Airport

Carlsbad, New Mexico, USA

KCNM 110853Z AUTO 33004KT 10SM CLR M03/M05 A3036 RMK AO2 SLP269 T10281050 58007

Observed Flight Rules
Dec-11 @ 08:53 UTC (29 minutes ago) Visual Flight Rules
Wind Visibility Clouds
330° at 4 knots 10 miles
  • Clear skies
Temperatures Readings
Current -3°C / 27°F
Dewpoint -5°C / 23°F
Humidity 86%
Altimeter 30.36" Hg
Pressure 1026.9 hPa
Elevation 985
Observed Flight Rules
Dec-11 @ 08:53 UTC
(29 minutes ago)
VFR
Wind Visibility
330° at 4 knots 10 miles
Clouds
  • Clear skies
Temperature Dewpoint
-3°C / 27°F -5°C / 23°F
Humidity Altimeter Pressure
86% 30.36" Hg 1026.9 hPa